Terminal Aerodrome Forecast
Issued by NWS

Home | Current Version | Previous Version | Text Only | Print | Product List | Glossary On
Versions: 1 2 3 4 5 6 7 8 9 10 11 12 13 14
059
FTAK31 PAJN 130520
TAFAPG
TAF
PAPG 130520Z 1306/1406 VRB03KT P6SM VCSH SCT050
     FM131000 VRB03KT 6SM -SHRA BR BKN025 OVC040
     FM131800 07005KT P6SM VCSH SCT025 OVC050
     FM140100 10005KT 6SM -SHRA BR FEW015 OVC025=

USA.gov is the U.S. government's official web portal to all federal, state and local government web resources and services.